Time;durP1;ratioP1;P1;durP2;ratioP2;P2;SDS_P1;SDS_P2;PMS_P1;PMS_P2;Temp;Humidity;BMP_temperature;BMP_pressure;BME280_temperature;BME280_humidity;BME280_pressure;Samples;Min_cycle;Max_cycle;Signal;HPM_P1;HPM_P2
2021/10/02 00:45:26;;;;;;;;;43.50;38.25;;;;;9.42;52.33;102664.66;5111998;28;12278;-71
2021/10/02 00:48:22;;;;;;;;;44.25;40.25;;;;;9.39;52.37;102670.75;5098684;28;11618;-72
2021/10/02 00:51:19;;;;;;;;;49.75;44.00;;;;;9.45;52.02;102677.94;5112131;28;11585;-71
2021/10/02 00:53:47;;;;;;;;;35.25;32.75;;;;;9.52;52.11;102681.25;5113414;28;11526;-70
2021/10/02 00:56:16;;;;;;;;;61.50;47.25;;;;;9.43;52.20;102677.38;5113288;28;11565;-72
2021/10/02 00:58:50;;;;;;;;;32.75;32.00;;;;;9.41;51.51;102668.53;5113057;28;11597;-72
2021/10/02 01:01:48;;;;;;;;;48.50;42.25;;;;;9.40;52.21;102664.94;5098606;28;11497;-72
2021/10/02 01:04:47;;;;;;;;;27.50;26.25;;;;;9.48;52.47;102666.34;5098488;28;11518;-72
2021/10/02 01:08:13;;;;;;;;;36.50;32.25;;;;;9.38;52.03;102669.09;5116052;28;11506;-72
2021/10/02 01:10:50;;;;;;;;;38.50;37.00;;;;;9.48;51.77;102666.34;5096878;28;11525;-71
2021/10/02 01:13:53;;;;;;;;;42.00;37.25;;;;;9.30;52.27;102664.94;5082075;28;11545;-71
2021/10/02 01:16:55;;;;;;;;;42.00;37.25;;;;;9.27;52.58;102664.66;5090404;28;11489;-71
2021/10/02 01:20:00;;;;;;;;;41.50;39.50;;;;;9.28;52.46;102669.91;5116072;28;11507;-71
2021/10/02 01:23:26;;;;;;;;;43.50;40.25;;;;;9.26;52.64;102658.28;5115925;28;11515;-71
2021/10/02 01:26:49;;;;;;;;;40.50;37.25;;;;;9.26;52.48;102669.34;5082964;28;12400;-70
2021/10/02 01:29:46;;;;;;;;;42.50;37.00;;;;;9.26;52.29;102671.28;5094986;28;11512;-71
2021/10/02 01:32:55;;;;;;;;;48.00;43.00;;;;;9.17;52.64;102663.53;5095841;28;11560;-72
2021/10/02 01:48:08;;;;;;;;;41.50;35.25;;;;;8.79;53.56;102659.28;5116130;28;11515;-72
2021/10/02 01:51:04;;;;;;;;;36.75;36.00;;;;;8.76;54.11;102657.09;5115052;28;11494;-72
2021/10/02 01:54:01;;;;;;;;;36.50;32.00;;;;;8.59;54.36;102659.25;5101748;28;11511;-72
2021/10/02 01:56:57;;;;;;;;;32.00;30.50;;;;;8.60;54.38;102656.22;5114829;28;11496;-72
2021/10/02 01:59:30;;;;;;;;;36.25;33.50;;;;;8.52;54.75;102650.38;5079616;28;11629;-72
2021/10/02 02:02:31;;;;;;;;;31.50;30.00;;;;;8.46;54.43;102663.31;5081363;28;11599;-72
2021/10/02 02:05:09;;;;;;;;;28.25;28.25;;;;;8.45;54.35;102655.31;5109395;28;11452;-72
2021/10/02 02:08:10;;;;;;;;;35.50;31.75;;;;;8.56;54.59;102657.00;5114973;28;11458;-72
2021/10/02 02:11:07;;;;;;;;;30.00;30.00;;;;;8.55;54.48;102660.88;5114999;28;11440;-71
2021/10/02 02:14:03;;;;;;;;;37.25;34.50;;;;;8.53;54.49;102655.63;5114762;28;11495;-72
2021/10/02 02:16:59;;;;;;;;;35.75;34.00;;;;;8.52;54.07;102653.16;5115391;28;11585;-71
2021/10/02 02:19:57;;;;;;;;;27.50;27.50;;;;;8.50;53.60;102644.28;5101084;28;11455;-71
2021/10/02 02:22:53;;;;;;;;;37.00;34.25;;;;;8.62;53.58;102651.25;5115022;28;11555;-72
2021/10/02 02:25:49;;;;;;;;;30.75;30.75;;;;;8.58;53.63;102652.88;5114655;28;11452;-72
2021/10/02 02:28:18;;;;;;;;;26.25;23.75;;;;;8.58;53.22;102657.56;5115127;28;11490;-72
2021/10/02 02:31:14;;;;;;;;;26.25;25.50;;;;;8.66;53.33;102661.72;5114841;28;11427;-72
2021/10/02 02:34:11;;;;;;;;;27.50;27.50;;;;;8.64;53.18;102657.31;5114446;28;11465;-72
2021/10/02 02:37:06;;;;;;;;;23.75;23.00;;;;;8.66;52.90;102656.22;5114360;28;11481;-72
2021/10/02 02:40:04;;;;;;;;;35.25;35.25;;;;;8.71;53.17;102657.06;5093901;28;11512;-71
2021/10/02 02:42:33;;;;;;;;;28.50;24.75;;;;;8.67;52.32;102658.72;5076994;28;11525;-71
2021/10/02 02:45:28;;;;;;;;;29.75;28.75;;;;;8.78;52.29;102657.66;5080169;28;11574;-72
2021/10/02 02:48:31;;;;;;;;;30.25;29.50;;;;;8.67;52.76;102663.41;5080325;28;11518;-71
2021/10/02 02:51:36;;;;;;;;;28.25;28.25;;;;;8.52;53.08;102662.25;5082585;28;11553;-73
2021/10/02 02:54:38;;;;;;;;;23.50;19.00;;;;;8.68;52.65;102656.78;5114350;28;11459;-71
2021/10/02 02:57:44;;;;;;;;;16.75;16.75;;;;;8.64;52.65;102657.31;5100291;28;12250;-72
2021/10/02 03:00:53;;;;;;;;;24.50;24.50;;;;;8.50;52.24;102644.28;5113981;28;11496;-72
2021/10/02 03:03:52;;;;;;;;;34.00;31.25;;;;;8.60;52.11;102660.91;5113832;28;12429;-72
2021/10/02 03:06:36;;;;;;;;;41.25;37.00;;;;;8.60;52.74;102653.44;5098949;28;11554;-71
2021/10/02 03:09:37;;;;;;;;;19.25;15.75;;;;;8.64;52.19;102653.72;5113439;28;11491;-72
2021/10/02 03:12:41;;;;;;;;;28.50;27.75;;;;;8.70;52.41;102660.94;5113234;28;11493;-71
2021/10/02 03:15:38;;;;;;;;;33.00;33.00;;;;;8.42;52.28;102648.38;5114383;28;11544;-71
2021/10/02 03:18:38;;;;;;;;;34.75;33.25;;;;;8.40;52.58;102642.31;5113455;28;11527;-72
2021/10/02 03:21:35;;;;;;;;;43.00;39.25;;;;;8.46;52.48;102654.22;5113573;28;11590;-71
2021/10/02 03:24:32;;;;;;;;;44.75;41.25;;;;;8.37;52.49;102651.16;5100186;28;11493;-72
2021/10/02 03:27:29;;;;;;;;;37.75;35.25;;;;;8.37;52.46;102653.91;5100562;28;11536;-72
2021/10/02 03:30:24;;;;;;;;;42.75;40.50;;;;;8.47;52.58;102658.63;5100115;28;11541;-71
2021/10/02 03:33:22;;;;;;;;;47.25;41.00;;;;;8.47;52.91;102656.69;5113163;28;11511;-70
2021/10/02 03:36:18;;;;;;;;;32.25;32.25;;;;;8.44;52.57;102657.25;5099753;28;12332;-71
2021/10/02 03:39:16;;;;;;;;;33.75;33.00;;;;;8.40;52.48;102655.28;5112292;27;11531;-72
2021/10/02 03:42:18;;;;;;;;;27.50;25.75;;;;;8.50;51.77;102653.38;5108423;28;11482;-72
2021/10/02 03:45:15;;;;;;;;;37.50;35.75;;;;;8.42;52.34;102661.34;5099232;28;11513;-71
2021/10/02 03:48:11;;;;;;;;;19.50;19.00;;;;;8.29;52.03;102651.63;5113076;28;11537;-72
2021/10/02 03:51:07;;;;;;;;;31.25;31.25;;;;;8.32;52.45;102660.19;5113098;28;11061;-71
2021/10/02 03:54:02;;;;;;;;;24.25;24.25;;;;;8.38;52.27;102658.31;5099678;28;12276;-71
2021/10/02 03:56:58;;;;;;;;;39.00;37.25;;;;;8.32;52.66;102649.16;5111057;28;11513;-72
2021/10/02 03:59:53;;;;;;;;;40.25;37.00;;;;;8.20;52.49;102656.78;5092082;28;11518;-71
2021/10/02 04:02:49;;;;;;;;;53.25;45.00;;;;;8.26;52.25;102647.47;5099452;28;11098;-73
2021/10/02 04:05:45;;;;;;;;;31.75;31.50;;;;;8.31;52.43;102650.25;5112887;28;11515;-73
2021/10/02 04:08:13;;;;;;;;;36.00;34.75;;;;;8.44;52.04;102654.50;5113436;28;11543;-73
2021/10/02 04:11:08;;;;;;;;;30.00;27.50;;;;;8.53;51.67;102649.28;5109747;28;11543;-71
2021/10/02 04:14:04;;;;;;;;;34.25;33.75;;;;;8.47;51.69;102662.22;5109717;27;12270;-71
2021/10/02 04:17:00;;;;;;;;;19.25;15.25;;;;;8.39;50.88;102661.91;5108402;28;11454;-73
2021/10/02 04:19:56;;;;;;;;;11.50;11.00;;;;;8.62;51.24;102661.44;5111927;28;11482;-71
2021/10/02 04:23:05;;;;;;;;;28.25;27.25;;;;;8.50;50.80;102658.91;5113012;28;11423;-72
2021/10/02 04:26:01;;;;;;;;;39.75;37.50;;;;;8.60;50.56;102658.97;5112616;28;11467;-72
2021/10/02 04:28:30;;;;;;;;;35.75;35.50;;;;;8.65;51.16;102666.41;5096314;28;11546;-72
2021/10/02 04:31:26;;;;;;;;;34.75;30.50;;;;;8.68;51.71;102663.13;5112496;28;12243;-73
2021/10/02 04:33:54;;;;;;;;;33.00;29.75;;;;;8.73;50.89;102660.38;5113320;28;11534;-72
2021/10/02 04:36:22;;;;;;;;;26.25;26.25;;;;;8.82;50.69;102661.53;5113725;28;11538;-72
2021/10/02 04:39:18;;;;;;;;;29.00;28.50;;;;;8.82;50.59;102661.53;5108317;28;12189;-72
2021/10/02 04:42:13;;;;;;;;;30.75;26.75;;;;;8.95;50.59;102665.69;5115952;28;11478;-72
2021/10/02 04:45:09;;;;;;;;;20.50;18.25;;;;;9.18;50.11;102667.13;5116159;28;11561;-72
2021/10/02 04:48:05;;;;;;;;;23.00;21.75;;;;;9.11;49.22;102661.03;5116368;28;11546;-71
2021/10/02 04:50:57;;;;;;;;;28.75;22.25;;;;;9.16;49.46;102666.56;5104011;28;11513;-73
2021/10/02 04:53:54;;;;;;;;;19.50;18.25;;;;;9.22;49.09;102664.66;5103448;28;11618;-73
2021/10/02 04:56:49;;;;;;;;;24.25;24.25;;;;;10.55;65.46;102658.69;5102674;28;11482;-72
2021/10/02 04:59:45;;;;;;;;;18.50;18.25;;;;;11.53;64.25;102653.41;5112091;27;11453;-72
2021/10/02 05:02:41;;;;;;;;;27.75;26.50;;;;;12.19;64.33;102661.97;5110694;28;11463;-71
2021/10/02 05:05:09;;;;;;;;;20.00;20.00;;;;;12.39;60.51;102662.84;5099510;28;12177;-72
2021/10/02 05:08:05;;;;;;;;;21.00;21.00;;;;;12.28;54.18;102664.09;5102737;28;11462;-72
2021/10/02 05:11:02;;;;;;;;;22.00;21.00;;;;;12.27;46.67;102666.03;5102071;28;11336;-72
2021/10/02 05:13:57;;;;;;;;;22.00;20.75;;;;;11.52;43.57;102668.38;5102491;28;11163;-74
2021/10/02 05:16:53;;;;;;;;;26.75;25.50;;;;;10.94;43.65;102677.34;5116047;28;11093;-74
2021/10/02 05:19:49;;;;;;;;;25.00;23.00;;;;;10.88;43.87;102675.69;5115601;28;11462;-72
2021/10/02 05:22:17;;;;;;;;;25.75;25.75;;;;;10.80;44.31;102673.53;5117172;28;11495;-71
2021/10/02 05:25:13;;;;;;;;;31.75;31.25;;;;;10.98;44.71;102672.06;5114409;28;11416;-71
2021/10/02 05:27:42;;;;;;;;;26.50;25.50;;;;;10.71;44.29;102673.31;5096706;28;11534;-71
2021/10/02 05:30:37;;;;;;;;;25.75;24.00;;;;;10.81;44.12;102670.50;5095412;28;11576;-70
2021/10/02 05:33:05;;;;;;;;;19.75;19.75;;;;;10.80;43.92;102670.75;5116004;28;11424;-72
2021/10/02 05:36:01;;;;;;;;;18.75;18.75;;;;;10.87;43.60;102671.28;5116105;28;11413;-72
2021/10/02 05:38:28;;;;;;;;;15.75;15.00;;;;;11.04;43.59;102669.00;5116547;28;11432;-71
2021/10/02 05:41:24;;;;;;;;;24.50;20.75;;;;;10.99;43.71;102662.66;5115732;28;11426;-72
2021/10/02 05:44:19;;;;;;;;;20.25;20.25;;;;;10.97;43.46;102662.13;5115119;28;11549;-72
2021/10/02 05:46:47;;;;;;;;;27.00;25.25;;;;;11.08;43.02;102663.69;5116631;28;11418;-73
2021/10/02 05:49:42;;;;;;;;;29.00;27.00;;;;;11.26;42.85;102662.19;5115171;28;11434;-72
2021/10/02 05:52:39;;;;;;;;;25.75;20.25;;;;;11.18;42.46;102662.81;5101885;28;11595;-72
2021/10/02 05:55:35;;;;;;;;;53.50;38.00;;;;;11.11;42.68;102660.34;5101887;28;12339;-71
2021/10/02 05:58:03;;;;;;;;;32.25;30.25;;;;;11.28;43.01;102652.50;5115599;28;11499;-72
2021/10/02 06:00:58;;;;;;;;;32.00;31.50;;;;;11.23;42.83;102654.47;5116214;27;11554;-72
2021/10/02 06:03:54;;;;;;;;;25.75;24.50;;;;;11.21;42.75;102660.31;5111725;28;11485;-72
2021/10/02 06:06:49;;;;;;;;;32.50;32.00;;;;;11.45;43.17;102662.34;5113639;27;11392;-72
2021/10/02 06:09:54;;;;;;;;;32.25;30.50;;;;;11.51;42.03;102650.94;5096350;28;11437;-72
2021/10/02 06:12:53;;;;;;;;;40.50;33.75;;;;;11.80;41.37;102650.97;5100244;28;11449;-72
2021/10/02 06:15:49;;;;;;;;;34.00;32.75;;;;;11.78;42.18;102652.34;5114397;28;11483;-70
2021/10/02 06:18:17;;;;;;;;;36.00;33.00;;;;;11.79;41.75;102656.78;5115648;28;11571;-71
2021/10/02 06:21:14;;;;;;;;;21.50;21.50;;;;;11.65;41.95;102656.63;5101245;28;11461;-71
2021/10/02 06:24:10;;;;;;;;;23.75;23.75;;;;;11.59;42.07;102647.53;5114737;28;11455;-71
2021/10/02 06:27:06;;;;;;;;;30.00;24.75;;;;;11.76;41.98;102640.72;5114063;28;11422;-72
2021/10/02 06:29:47;;;;;;;;;16.00;15.75;;;;;11.70;41.32;102639.94;5114804;28;11446;-71
2021/10/02 06:32:43;;;;;;;;;20.00;20.00;;;;;11.73;41.20;102642.16;5114729;28;11516;-71
2021/10/02 06:35:39;;;;;;;;;24.00;23.25;;;;;12.00;41.51;102640.81;5114555;28;11169;-71
2021/10/02 06:38:34;;;;;;;;;19.75;17.75;;;;;12.17;41.06;102641.16;5098200;28;11459;-73
2021/10/02 06:41:30;;;;;;;;;21.25;21.25;;;;;12.31;40.24;102632.97;5113601;28;11398;-73
2021/10/02 06:44:26;;;;;;;;;19.50;18.75;;;;;12.15;40.68;102637.88;5097508;28;11223;-72
2021/10/02 06:46:58;;;;;;;;;15.75;12.00;;;;;12.60;40.25;102636.50;5091135;28;11706;-73
2021/10/02 06:49:28;;;;;;;;;31.75;26.25;;;;;12.57;40.54;102628.75;5102637;28;10856;-71
2021/10/02 06:51:57;;;;;;;;;15.50;15.50;;;;;12.76;40.06;102635.16;5084376;28;11231;-72
2021/10/02 06:54:53;;;;;;;;;17.50;17.50;;;;;12.64;39.31;102629.22;5101823;28;11764;-71
2021/10/02 06:57:22;;;;;;;;;13.25;13.25;;;;;12.76;39.80;102634.34;5114192;28;11018;-71
2021/10/02 07:00:18;;;;;;;;;14.00;14.00;;;;;12.84;39.07;102622.56;5113759;28;10886;-72
2021/10/02 07:03:14;;;;;;;;;16.25;16.25;;;;;12.95;39.38;102632.38;5104981;28;10779;-71
2021/10/02 07:06:10;;;;;;;;;19.25;19.25;;;;;13.22;38.93;102622.59;5114104;28;11088;-73
2021/10/02 07:09:05;;;;;;;;;16.50;16.25;;;;;13.58;38.87;102618.09;5113115;28;10684;-72
2021/10/02 07:12:01;;;;;;;;;17.50;16.75;;;;;13.72;38.99;102622.84;5098076;27;10643;-71
2021/10/02 07:15:00;;;;;;;;;29.25;27.75;;;;;13.91;38.18;102615.28;5105891;28;10568;-72
2021/10/02 07:17:56;;;;;;;;;38.50;36.75;;;;;13.81;38.30;102621.03;5112798;28;11640;-73
2021/10/02 07:20:51;;;;;;;;;26.50;26.50;;;;;13.87;38.04;102623.38;5108344;27;11416;-72
2021/10/02 07:23:47;;;;;;;;;22.75;22.75;;;;;14.13;37.66;102606.22;5099685;28;10733;-73
2021/10/02 07:26:44;;;;;;;;;27.25;27.25;;;;;14.24;37.53;102616.00;5084914;28;10534;-72
2021/10/02 07:29:39;;;;;;;;;25.50;25.00;;;;;14.26;37.56;102613.75;5099663;28;11448;-73
2021/10/02 07:32:23;;;;;;;;;22.75;22.75;;;;;14.34;36.95;102615.81;5096655;28;10556;-71
2021/10/02 07:35:20;;;;;;;;;21.50;21.00;;;;;14.20;36.92;102615.00;5110634;27;10392;-73
2021/10/02 07:38:16;;;;;;;;;14.50;13.75;;;;;14.09;37.39;102610.75;5079366;28;10314;-73
2021/10/02 07:41:14;;;;;;;;;28.50;27.50;;;;;14.32;37.41;102603.31;5095396;28;10144;-72
2021/10/02 07:44:12;;;;;;;;;22.50;22.50;;;;;14.39;37.14;102593.44;5099957;28;10479;-73
2021/10/02 07:46:47;;;;;;;;;19.75;19.50;;;;;14.85;36.44;102606.38;5113966;27;10510;-74
2021/10/02 07:49:43;;;;;;;;;24.25;24.00;;;;;14.88;36.71;102599.38;5108070;27;10228;-72
2021/10/02 07:52:41;;;;;;;;;19.00;18.75;;;;;14.91;36.70;102601.50;5093295;28;10432;-71
2021/10/02 07:55:53;;;;;;;;;19.25;19.25;;;;;15.11;36.35;102594.66;5092487;28;9945;-73
2021/10/02 07:58:22;;;;;;;;;25.25;24.00;;;;;15.34;35.94;102592.69;5084868;28;9850;-72
2021/10/02 08:01:19;;;;;;;;;31.75;28.50;;;;;15.28;35.58;102594.78;5098391;28;10164;-70
2021/10/02 08:04:15;;;;;;;;;43.00;35.00;;;;;15.51;35.43;102603.94;5112701;27;10494;-72
2021/10/02 08:07:13;;;;;;;;;32.00;30.50;;;;;15.94;35.60;102595.84;5105424;28;10505;-72
2021/10/02 08:10:11;;;;;;;;;32.00;30.00;;;;;15.91;35.30;102590.09;5109357;28;10950;-73
2021/10/02 08:13:06;;;;;;;;;25.50;24.75;;;;;15.69;35.49;102586.19;5103652;28;10019;-73
2021/10/02 08:16:03;;;;;;;;;14.00;14.00;;;;;16.10;35.68;102585.91;5101492;28;10018;-72
2021/10/02 08:19:00;;;;;;;;;14.00;14.00;;;;;16.37;35.31;102592.38;5078613;28;9607;-71
2021/10/02 08:21:57;;;;;;;;;16.50;16.25;;;;;16.42;35.88;102578.28;5107031;28;9429;-72
2021/10/02 08:24:53;;;;;;;;;92.00;90.25;;;;;16.47;50.06;102575.31;5112492;28;9499;-71
2021/10/02 08:27:49;;;;;;;;;18.50;17.75;;;;;16.70;37.11;102569.63;5099443;28;11546;-71
2021/10/02 08:30:46;;;;;;;;;56.75;48.50;;;;;17.13;38.95;102567.69;5109667;28;9567;-71
2021/10/02 08:33:14;;;;;;;;;61.75;50.25;;;;;17.28;43.26;102559.94;5113561;28;10301;-71
2021/10/02 08:35:48;;;;;;;;;20.75;19.75;;;;;17.17;39.24;102570.63;5113598;28;11086;-71
2021/10/02 08:38:15;;;;;;;;;71.75;60.50;;;;;17.56;41.31;102568.75;5095694;28;9681;-71
2021/10/02 08:40:45;;;;;;;;;15.00;13.00;;;;;17.16;36.30;102569.81;5113631;28;11176;-70
2021/10/02 08:43:15;;;;;;;;;28.75;27.00;;;;;17.11;38.41;102564.41;5095729;28;9654;-71
2021/10/02 08:45:42;;;;;;;;;48.25;41.00;;;;;17.33;44.61;102574.56;5113484;28;9940;-71
2021/10/02 08:48:17;;;;;;;;;18.33;16.67;;;;;17.16;43.70;102568.97;5113603;28;9762;-70
2021/10/02 08:50:47;;;;;;;;;25.67;17.67;;;;;16.86;39.56;102568.81;5113169;28;9168;-72
2021/10/02 08:53:35;;;;;;;;;32.33;32.00;;;;;16.91;43.12;102573.44;5113784;28;9222;-71
2021/10/02 08:56:03;;;;;;;;;18.75;18.25;;;;;17.39;38.72;102562.03;5113360;28;9456;-70
2021/10/02 08:58:31;;;;;;;;;6.33;6.33;;;;;17.62;38.29;102565.44;5113345;28;10181;-71
2021/10/02 09:01:18;;;;;;;;;24.00;23.67;;;;;17.69;37.46;102562.13;5113307;28;9410;-71
2021/10/02 09:03:46;;;;;;;;;27.00;24.00;;;;;18.08;36.45;102551.78;5113356;28;9228;-71
2021/10/02 09:06:14;;;;;;;;;22.33;22.33;;;;;18.30;38.21;102554.31;5113403;28;9309;-72
2021/10/02 09:08:42;;;;;;;;;14.25;14.25;;;;;18.12;38.09;102552.78;5095335;28;9944;-72
2021/10/02 09:11:27;;;;;;;;;29.00;29.00;;;;;18.55;43.77;102538.47;5113364;28;8818;-72
2021/10/02 09:14:02;;;;;;;;;13.25;12.75;;;;;18.66;38.38;102544.53;5113051;28;9305;-72
2021/10/02 09:16:50;;;;;;;;;27.33;27.33;;;;;18.75;43.66;102536.88;5113389;28;8851;-72
2021/10/02 09:19:19;;;;;;;;;15.25;14.75;;;;;18.51;37.15;102534.72;5095439;28;8975;-71
2021/10/02 09:21:57;;;;;;;;;16.00;16.00;;;;;18.94;37.14;102531.63;5113178;28;8842;-71
2021/10/02 09:24:46;;;;;;;;;14.75;14.75;;;;;18.71;38.02;102531.16;5098631;28;8831;-71
2021/10/02 09:27:23;;;;;;;;;17.50;17.50;;;;;19.36;36.56;102532.34;5114947;28;8850;-71
2021/10/02 09:30:14;;;;;;;;;10.75;10.00;;;;;19.43;36.43;102528.97;5117260;28;8823;-70
2021/10/02 09:32:45;;;;;;;;;15.75;15.00;;;;;19.41;36.63;102532.13;5116833;28;9790;-70
2021/10/02 09:35:14;;;;;;;;;12.50;12.50;;;;;19.94;38.72;102526.72;5117054;28;8834;-71
2021/10/02 09:37:46;;;;;;;;;12.00;12.00;;;;;20.02;35.24;102520.19;5098902;28;8853;-71
2021/10/02 09:40:18;;;;;;;;;13.75;11.25;;;;;20.41;36.46;102520.59;5116788;28;8838;-70
2021/10/02 09:42:49;;;;;;;;;16.25;16.25;;;;;20.17;39.72;102521.47;5089670;28;8837;-71
2021/10/02 09:45:29;;;;;;;;;9.50;9.50;;;;;19.78;35.15;102517.34;5116534;28;8852;-71
2021/10/02 09:48:32;;;;;;;;;9.75;9.75;;;;;19.75;36.10;102521.69;5114461;28;8841;-71
2021/10/02 09:51:38;;;;;;;;;11.50;11.50;;;;;19.72;35.89;102508.34;5115105;28;8798;-72
2021/10/02 09:54:39;;;;;;;;;8.25;8.25;;;;;19.40;36.81;102499.63;5101336;28;8848;-72
2021/10/02 09:57:40;;;;;;;;;11.00;11.00;;;;;19.54;36.27;102498.47;5114884;28;8844;-72
2021/10/02 10:00:39;;;;;;;;;7.75;7.75;;;;;19.74;36.02;102500.38;5115363;28;8823;-73
2021/10/02 10:03:44;;;;;;;;;8.50;8.50;;;;;19.88;35.30;102497.25;5114923;28;8845;-72
2021/10/02 10:06:39;;;;;;;;;9.75;9.75;;;;;20.40;34.99;102499.31;5109214;28;9690;-73
2021/10/02 10:09:12;;;;;;;;;11.00;11.00;;;;;20.65;34.46;102506.50;5116163;28;8899;-71
2021/10/02 10:12:08;;;;;;;;;11.00;11.00;;;;;20.45;35.81;102494.25;5108817;27;8928;-76
2021/10/02 10:15:07;;;;;;;;;9.75;9.50;;;;;20.31;35.19;102490.16;5095157;28;8882;-79
2021/10/02 10:18:03;;;;;;;;;13.00;13.00;;;;;20.60;34.69;102492.69;5112306;28;8835;-78
2021/10/02 10:21:01;;;;;;;;;11.50;11.50;;;;;20.78;34.84;102488.44;5093957;28;8840;-76
2021/10/02 10:24:04;;;;;;;;;12.75;11.25;;;;;20.65;34.72;102478.41;5111402;28;8823;-77
2021/10/02 10:27:00;;;;;;;;;9.25;9.00;;;;;20.46;34.66;102476.22;5103787;28;8932;-78
2021/10/02 10:30:04;;;;;;;;;13.75;13.75;;;;;20.56;35.14;102480.56;5114800;28;8835;-78
2021/10/02 10:32:54;;;;;;;;;9.75;9.75;;;;;20.67;35.14;102473.22;5098783;28;8834;-77
2021/10/02 10:35:23;;;;;;;;;11.75;11.75;;;;;21.12;34.72;102466.47;5115720;28;8868;-76
2021/10/02 10:38:22;;;;;;;;;8.00;8.00;;;;;21.39;34.14;102467.59;5086992;28;8867;-76
2021/10/02 10:41:20;;;;;;;;;7.25;7.25;;;;;21.26;33.93;102472.47;5113127;28;8964;-78
2021/10/02 10:44:16;;;;;;;;;9.75;8.00;;;;;21.14;33.55;102466.91;5114315;28;8827;-76
2021/10/02 10:46:59;;;;;;;;;13.75;13.75;;;;;21.46;33.44;102459.34;5082684;28;8855;-77
2021/10/02 10:49:49;;;;;;;;;12.00;12.00;;;;;21.32;33.03;102445.75;5095603;28;8843;-78
2021/10/02 10:52:46;;;;;;;;;8.75;8.75;;;;;20.63;34.46;102460.28;5100507;28;8838;-76
2021/10/02 10:55:56;;;;;;;;;12.00;12.00;;;;;20.09;35.06;102444.56;5114402;28;8854;-77
2021/10/02 10:59:08;;;;;;;;;15.75;15.75;;;;;20.03;35.78;102448.78;5114396;28;8831;-78
2021/10/02 11:03:03;;;;;;;;;12.75;12.75;;;;;19.60;35.95;102447.41;5108289;28;8849;-76
2021/10/02 11:07:14;;;;;;;;;;;;;;;;;;;;;
2021/10/02 11:14:46;;;;;;;;;6.00;6.00;;;;;20.18;35.04;102436.00;5073521;28;8900;-76
2021/10/02 11:17:44;;;;;;;;;6.00;6.00;;;;;20.73;34.81;102438.06;5106433;27;8935;-77
2021/10/02 11:20:36;;;;;;;;;6.00;6.00;;;;;20.71;34.72;102440.44;5113922;28;8835;-77
2021/10/02 11:42:12;;;;;;;;;9.50;9.50;;;;;19.47;37.61;102430.88;4896311;29;8833;-78
2021/10/02 13:05:02;;;;;;;;;20.25;19.75;;;;;20.67;36.37;102402.13;5748091;24;8882;-76
2021/10/02 13:13:14;;;;;;;;;16.75;16.75;;;;;19.89;37.59;102404.22;5734375;25;8847;-76
2021/10/02 13:17:40;;;;;;;;;17.25;17.00;;;;;19.79;37.51;102401.91;5745011;25;8794;-78
2021/10/02 13:59:17;;;;;;;;;;;;;;;;;;;;;
2021/10/02 14:02:39;;;;;;;;;;;;;;;;;;;;;
2021/10/02 14:23:07;;;;;;;;;42.75;36.50;;;;;18.72;38.16;102403.03;5984897;24;9117;-78
2021/10/02 14:26:03;;;;;;;;;33.67;31.33;;;;;18.77;38.45;102392.41;6033010;23;9599;-77
2021/10/02 14:28:41;;;;;;;;;27.33;26.67;;;;;18.66;38.41;102398.81;6274551;22;9113;-75
2021/10/02 14:31:15;;;;;;;;;30.00;30.00;;;;;18.66;38.91;102396.00;6284034;22;8925;-75
2021/10/02 14:33:47;;;;;;;;;27.33;27.33;;;;;18.39;39.19;102401.00;6291477;22;9015;-75
2021/10/02 14:36:16;;;;;;;;;38.00;34.25;;;;;18.48;39.18;102392.50;6285089;22;9990;-75
2021/10/02 14:38:44;;;;;;;;;32.75;31.75;;;;;18.46;39.23;102395.66;6278304;22;9510;-76
2021/10/02 14:41:39;;;;;;;;;46.50;38.50;;;;;18.34;39.66;102406.81;6276230;22;9481;-75
2021/10/02 14:44:35;;;;;;;;;48.00;40.50;;;;;18.28;39.83;102403.41;6294073;22;10502;-76
2021/10/02 14:47:03;;;;;;;;;56.25;45.50;;;;;18.18;39.53;102408.59;6284667;22;9948;-74
2021/10/02 14:49:31;;;;;;;;;42.25;35.00;;;;;18.14;39.76;102402.03;6284860;22;10342;-75
2021/10/02 14:52:01;;;;;;;;;22.67;21.00;;;;;18.06;39.93;102400.94;6275917;22;10279;-76
2021/10/02 14:55:06;;;;;;;;;28.33;28.00;;;;;18.05;39.52;102405.72;6277282;22;9276;-76
2021/10/02 14:58:04;;;;;;;;;21.67;21.67;;;;;17.89;40.15;102401.06;6276852;22;9280;-76
2021/10/02 15:00:33;;;;;;;;;19.00;18.67;;;;;17.92;39.98;102409.59;6286322;22;9246;-75
2021/10/02 15:03:29;;;;;;;;;22.00;20.33;;;;;17.73;40.13;102400.84;6275517;22;9635;-74
2021/10/02 15:05:57;;;;;;;;;26.67;26.67;;;;;17.81;40.28;102413.97;6286091;22;9010;-76
2021/10/02 15:08:54;;;;;;;;;40.25;34.25;;;;;17.77;40.25;102408.19;6274353;22;9274;-76
2021/10/02 15:11:50;;;;;;;;;32.00;31.00;;;;;17.84;39.87;102409.66;6276825;22;9658;-76
2021/10/02 15:14:46;;;;;;;;;37.50;34.00;;;;;17.68;40.13;102407.41;6276933;22;9576;-76
2021/10/02 15:17:41;;;;;;;;;37.50;34.00;;;;;17.67;40.65;102407.75;6276632;22;9490;-75
2021/10/02 15:20:45;;;;;;;;;42.25;37.25;;;;;17.72;40.46;102405.63;6276434;22;9900;-75
2021/10/02 15:23:52;;;;;;;;;43.25;38.50;;;;;17.72;40.80;102407.59;6276329;22;10073;-76
2021/10/02 15:26:49;;;;;;;;;34.25;31.75;;;;;17.58;40.39;102406.97;6276543;22;9877;-77
2021/10/02 15:29:47;;;;;;;;;28.67;28.67;;;;;17.53;41.06;102405.19;6277064;22;9635;-76
2021/10/02 15:32:16;;;;;;;;;17.00;17.00;;;;;17.50;40.45;102417.06;6286024;22;9272;-75
2021/10/02 15:35:12;;;;;;;;;10.33;10.33;;;;;17.50;40.25;102411.47;6276418;22;8801;-76
2021/10/02 15:37:42;;;;;;;;;15.67;15.67;;;;;17.39;40.72;102412.97;6282326;22;9017;-76
2021/10/02 15:40:38;;;;;;;;;18.67;18.67;;;;;17.34;40.51;102407.59;6276626;22;9149;-76
2021/10/02 15:43:34;;;;;;;;;19.33;18.67;;;;;17.31;41.02;102409.06;6293494;22;9287;-76
2021/10/02 15:46:30;;;;;;;;;23.33;23.33;;;;;17.20;41.05;102417.00;6293888;22;9268;-75
2021/10/02 15:49:29;;;;;;;;;25.25;24.50;;;;;17.22;40.75;102406.31;6275800;22;9391;-76
2021/10/02 15:52:25;;;;;;;;;20.00;20.00;;;;;17.28;40.92;102408.94;6276538;22;9529;-76
2021/10/02 15:55:24;;;;;;;;;32.00;32.00;;;;;17.19;41.13;102415.38;6276132;22;9341;-76
2021/10/02 15:58:21;;;;;;;;;32.75;30.25;;;;;17.15;41.20;102408.78;6275812;22;9699;-75
2021/10/02 16:00:57;;;;;;;;;18.50;17.75;;;;;17.20;41.01;102414.22;6285201;22;9767;-77
2021/10/02 16:04:12;;;;;;;;;25.00;25.00;;;;;17.10;41.29;102408.16;6276182;22;9795;-76
2021/10/02 16:06:45;;;;;;;;;23.00;20.50;;;;;17.17;41.11;102422.44;6285424;22;9349;-76
2021/10/02 16:09:41;;;;;;;;;30.75;30.75;;;;;17.21;41.01;102423.44;6276115;22;9734;-76
2021/10/02 16:12:42;;;;;;;;;38.25;34.50;;;;;17.07;41.07;102428.41;6276307;22;9728;-75
2021/10/02 16:15:39;;;;;;;;;41.75;36.75;;;;;17.08;41.18;102419.66;6276207;22;10143;-75
2021/10/02 16:18:36;;;;;;;;;24.25;21.50;;;;;16.90;40.97;102427.28;6274648;22;10239;-77
2021/10/02 16:21:33;;;;;;;;;29.00;27.25;;;;;16.97;41.07;102423.16;6276128;22;9486;-77
2021/10/02 16:24:03;;;;;;;;;25.75;25.75;;;;;17.00;41.63;102425.28;6285193;22;9473;-78
2021/10/02 16:26:31;;;;;;;;;26.75;26.75;;;;;16.97;40.94;102423.16;6285625;22;9530;-77
2021/10/02 16:29:27;;;;;;;;;25.75;24.25;;;;;16.81;40.89;102432.09;6292958;22;9410;-76
2021/10/02 16:32:23;;;;;;;;;21.33;21.00;;;;;16.78;40.96;102426.31;6275709;22;9541;-77
2021/10/02 16:34:50;;;;;;;;;20.33;20.33;;;;;16.86;41.16;102420.72;6276936;22;9432;-75
2021/10/02 16:37:34;;;;;;;;;27.25;27.25;;;;;16.80;41.11;102433.25;6275504;22;9191;-75
2021/10/02 16:40:05;;;;;;;;;33.50;30.25;;;;;16.80;40.97;102422.06;6284886;22;9799;-77
2021/10/02 16:42:36;;;;;;;;;23.33;22.33;;;;;16.80;40.91;102430.44;6276315;22;9556;-76
2021/10/02 16:45:22;;;;;;;;;44.75;38.50;;;;;16.68;41.05;102430.25;6275816;22;9273;-78
2021/10/02 16:48:05;;;;;;;;;46.00;37.75;;;;;16.73;41.23;102430.13;6275595;22;9989;-77
2021/10/02 16:50:54;;;;;;;;;31.75;31.00;;;;;16.63;41.04;102434.03;6275377;22;9768;-76